Time;durP1;ratioP1;P1;durP2;ratioP2;P2;SDS_P1;SDS_P2;PMS_P1;PMS_P2;Temp;Humidity;BMP_temperature;BMP_pressure;BME280_temperature;BME280_humidity;BME280_pressure;Samples;Min_cycle;Max_cycle;Signal;HPM_P1;HPM_P2
2023/04/13 00:01:22;;;;;;;42.80;24.23;;;6.30;99.90;;;;;;4922183;29;20163;-74
2023/04/13 00:03:49;;;;;;;34.35;19.13;;;6.20;99.90;;;;;;4915411;29;20473;-74
2023/04/13 00:06:19;;;;;;;36.67;21.35;;;6.20;99.90;;;;;;4925589;29;20040;-74
2023/04/13 00:08:46;;;;;;;28.65;16.92;;;6.30;99.90;;;;;;4927120;29;20044;-75
2023/04/13 00:11:15;;;;;;;44.05;23.08;;;6.30;99.90;;;;;;4929815;29;20136;-76
2023/04/13 00:13:46;;;;;;;52.47;27.58;;;6.30;99.90;;;;;;4926089;29;20755;-76
2023/04/13 00:16:15;;;;;;;39.72;21.17;;;6.40;99.90;;;;;;4928382;29;20032;-76
2023/04/13 00:18:42;;;;;;;69.20;34.50;;;6.40;99.90;;;;;;4931288;29;20033;-76
2023/04/13 00:21:10;;;;;;;56.28;29.52;;;6.30;99.90;;;;;;4931730;29;20059;-74
2023/04/13 00:23:39;;;;;;;50.90;26.67;;;6.20;99.90;;;;;;4933320;29;20239;-76
2023/04/13 00:26:07;;;;;;;47.38;25.17;;;6.20;99.90;;;;;;4934666;29;20108;-75
2023/04/13 00:28:34;;;;;;;55.03;26.88;;;6.20;99.90;;;;;;4927493;29;20097;-75
2023/04/13 00:31:02;;;;;;;42.47;25.08;;;6.10;99.90;;;;;;4916847;29;20044;-76
2023/04/13 00:33:32;;;;;;;36.30;21.30;;;6.20;99.90;;;;;;4896898;29;20044;-73
2023/04/13 00:36:00;;;;;;;36.38;21.10;;;6.20;99.90;;;;;;4913337;29;20559;-77
2023/04/13 00:38:28;;;;;;;55.10;29.27;;;6.20;99.90;;;;;;4913379;29;20140;-74
2023/04/13 00:40:57;;;;;;;54.42;25.73;;;6.10;99.90;;;;;;4895620;29;20052;-74
2023/04/13 00:43:30;;;;;;;49.72;25.90;;;6.10;99.90;;;;;;4895879;29;20391;-74
2023/04/13 00:45:58;;;;;;;52.80;26.98;;;6.10;99.90;;;;;;4896314;29;20060;-74
2023/04/13 00:48:26;;;;;;;38.63;21.02;;;6.00;99.90;;;;;;4905177;29;20060;-74
2023/04/13 00:50:54;;;;;;;40.53;20.58;;;6.10;99.90;;;;;;4895119;29;20501;-76
2023/04/13 00:53:23;;;;;;;44.00;25.20;;;6.10;99.90;;;;;;4896649;29;20071;-74
2023/04/13 00:55:51;;;;;;;39.40;22.77;;;6.10;99.90;;;;;;4912934;29;20064;-74
2023/04/13 00:58:20;;;;;;;36.22;20.10;;;6.10;99.90;;;;;;4913531;29;20048;-74
2023/04/13 01:00:47;;;;;;;34.80;21.90;;;6.00;99.90;;;;;;4913587;29;20263;-75
2023/04/13 01:03:15;;;;;;;33.47;21.05;;;6.00;99.90;;;;;;4913403;29;20051;-74
2023/04/13 01:05:53;;;;;;;28.00;16.80;;;5.90;99.90;;;;;;4912936;29;20299;-75
2023/04/13 01:08:27;;;;;;;30.90;17.77;;;5.90;99.90;;;;;;4918585;29;20100;-77
2023/04/13 01:11:00;;;;;;;27.50;16.95;;;5.80;99.90;;;;;;4907510;29;20096;-75
2023/04/13 01:13:35;;;;;;;27.25;16.02;;;5.80;99.90;;;;;;4911939;29;20422;-75
2023/04/13 01:16:09;;;;;;;25.75;15.45;;;5.80;99.90;;;;;;4898013;29;20172;-74
2023/04/13 01:18:42;;;;;;;24.45;14.73;;;5.80;99.90;;;;;;4913896;29;20040;-76
2023/04/13 01:21:14;;;;;;;25.23;14.82;;;5.80;99.90;;;;;;4904872;29;20634;-74
2023/04/13 01:23:56;;;;;;;24.02;14.13;;;5.80;99.90;;;;;;4899051;29;20041;-74
2023/04/13 01:26:36;;;;;;;24.35;15.15;;;5.70;99.90;;;;;;4904882;29;20044;-75
2023/04/13 01:29:05;;;;;;;29.60;14.98;;;5.70;99.90;;;;;;4898900;29;20048;-74
2023/04/13 01:31:34;;;;;;;25.23;14.13;;;5.60;99.90;;;;;;4916057;29;20048;-74
2023/04/13 01:34:02;;;;;;;24.73;13.55;;;5.70;99.90;;;;;;4916422;29;20075;-74
2023/04/13 01:36:32;;;;;;;26.52;14.15;;;5.70;99.90;;;;;;4912207;29;20071;-73
2023/04/13 01:39:03;;;;;;;39.95;18.67;;;5.80;99.90;;;;;;4914005;29;20470;-75
2023/04/13 01:41:32;;;;;;;30.42;14.60;;;5.70;99.90;;;;;;4904666;29;20036;-74
2023/04/13 01:43:59;;;;;;;19.88;10.30;;;5.70;99.90;;;;;;4914332;29;20044;-75
2023/04/13 01:46:36;;;;;;;29.73;14.98;;;5.80;99.90;;;;;;4897326;29;20051;-74
2023/04/13 01:49:32;;;;;;;23.63;13.07;;;5.70;99.90;;;;;;4915519;29;20048;-74
2023/04/13 01:52:22;;;;;;;21.77;12.25;;;5.80;99.90;;;;;;4914933;29;20603;-73
2023/04/13 01:54:51;;;;;;;20.35;12.18;;;5.80;99.90;;;;;;4899174;29;20146;-74
2023/04/13 01:57:21;;;;;;;23.65;14.00;;;5.80;99.90;;;;;;4905164;29;20059;-74
2023/04/13 01:59:50;;;;;;;28.90;16.15;;;5.90;99.90;;;;;;4910688;29;20573;-74
2023/04/13 02:02:21;;;;;;;39.33;22.10;;;5.80;99.90;;;;;;4897715;29;20666;-74
2023/04/13 02:04:49;;;;;;;36.22;21.58;;;5.80;99.90;;;;;;4914085;29;20044;-74
2023/04/13 02:07:17;;;;;;;38.50;21.05;;;5.80;99.90;;;;;;4896829;29;20516;-74
2023/04/13 02:09:49;;;;;;;32.00;19.58;;;5.80;99.90;;;;;;4898372;29;20052;-74
2023/04/13 02:12:17;;;;;;;48.65;27.13;;;5.80;99.90;;;;;;4900045;29;20056;-74
2023/04/13 02:14:44;;;;;;;31.75;17.90;;;5.80;99.90;;;;;;4899987;29;20045;-74
2023/04/13 02:17:12;;;;;;;29.33;16.73;;;5.80;99.90;;;;;;4899315;29;20134;-75
2023/04/13 02:19:44;;;;;;;29.23;17.15;;;5.80;99.90;;;;;;4896581;29;20335;-74
2023/04/13 02:22:15;;;;;;;29.80;17.70;;;5.80;99.90;;;;;;4915509;23;20147;-75
2023/04/13 02:24:42;;;;;;;28.48;16.85;;;5.80;99.90;;;;;;4894612;29;20053;-76
2023/04/13 02:27:11;;;;;;;27.45;16.90;;;5.80;99.90;;;;;;4894256;29;20052;-75
2023/04/13 02:29:38;;;;;;;25.80;14.75;;;5.80;99.90;;;;;;4895991;29;20052;-77
2023/04/13 02:32:06;;;;;;;26.23;13.15;;;5.70;99.90;;;;;;4897448;29;20048;-75
2023/04/13 02:34:34;;;;;;;26.17;15.55;;;5.80;99.90;;;;;;4897589;29;20108;-77
2023/04/13 02:37:03;;;;;;;32.75;16.88;;;5.80;99.90;;;;;;4895058;29;20417;-79
2023/04/13 02:39:31;;;;;;;34.70;20.10;;;5.70;99.90;;;;;;4896641;29;20056;-78
2023/04/13 02:42:01;;;;;;;29.00;15.38;;;5.60;99.90;;;;;;4911514;29;20052;-76
2023/04/13 02:44:30;;;;;;;28.83;14.88;;;5.60;99.90;;;;;;4896248;29;20079;-78
2023/04/13 02:47:00;;;;;;;29.13;14.43;;;5.50;99.90;;;;;;4894139;29;20067;-76
2023/04/13 02:49:27;;;;;;;21.65;13.25;;;5.50;99.90;;;;;;4877890;29;20045;-77
2023/04/13 02:52:05;;;;;;;29.58;15.45;;;5.50;99.90;;;;;;4894123;29;20064;-77
2023/04/13 02:54:43;;;;;;;26.00;14.50;;;5.40;99.90;;;;;;4894344;29;20143;-76
2023/04/13 02:57:12;;;;;;;22.17;12.95;;;5.30;99.90;;;;;;4893120;29;20116;-77
2023/04/13 02:59:42;;;;;;;27.95;14.80;;;5.30;99.90;;;;;;4893624;29;20060;-75
2023/04/13 03:02:11;;;;;;;26.13;14.00;;;5.20;99.90;;;;;;4893070;29;20056;-77
2023/04/13 03:04:38;;;;;;;27.75;14.20;;;5.20;99.90;;;;;;4893569;29;20052;-76
2023/04/13 03:07:08;;;;;;;25.65;13.13;;;5.20;99.90;;;;;;4908207;29;20496;-76
2023/04/13 03:09:41;;;;;;;20.17;12.07;;;5.30;99.90;;;;;;4910452;29;20116;-76
2023/04/13 03:12:09;;;;;;;24.15;12.35;;;5.20;99.90;;;;;;4894025;29;20044;-77
2023/04/13 03:14:38;;;;;;;27.17;15.32;;;5.20;99.90;;;;;;4897009;29;20481;-77
2023/04/13 03:17:10;;;;;;;29.52;17.38;;;5.20;99.90;;;;;;4902584;29;20068;-75
2023/04/13 03:19:40;;;;;;;30.33;19.08;;;5.20;99.90;;;;;;4932848;29;20055;-76
2023/04/13 03:22:10;;;;;;;29.15;18.58;;;5.20;99.90;;;;;;4896925;29;20497;-76
2023/04/13 03:24:44;;;;;;;30.10;17.45;;;5.20;99.90;;;;;;4897322;29;20037;-78
2023/04/13 03:27:16;;;;;;;27.33;17.30;;;5.10;99.90;;;;;;4894205;29;20128;-77
2023/04/13 03:29:48;;;;;;;30.20;17.88;;;5.10;99.90;;;;;;4912503;29;20047;-77
2023/04/13 03:32:21;;;;;;;31.20;17.30;;;5.10;99.90;;;;;;4900074;29;20148;-78
2023/04/13 03:34:55;;;;;;;22.35;13.32;;;5.00;99.90;;;;;;4896009;29;20045;-78
2023/04/13 03:37:28;;;;;;;19.90;11.48;;;5.00;99.90;;;;;;4893403;29;20060;-77
2023/04/13 03:39:58;;;;;;;16.25;9.15;;;5.10;99.90;;;;;;4897729;29;20105;-78
2023/04/13 03:42:28;;;;;;;18.10;10.38;;;5.00;99.90;;;;;;4901887;29;20449;-78
2023/04/13 03:44:59;;;;;;;20.17;11.75;;;5.00;99.90;;;;;;4895598;29;20040;-77
2023/04/13 03:47:26;;;;;;;24.15;14.15;;;5.00;99.90;;;;;;4898981;29;20033;-76
2023/04/13 03:49:54;;;;;;;23.42;14.02;;;4.90;99.90;;;;;;4927682;29;20377;-77
2023/04/13 03:52:24;;;;;;;25.10;13.98;;;4.90;99.90;;;;;;4901796;29;20128;-76
2023/04/13 03:54:57;;;;;;;26.83;14.13;;;4.90;99.90;;;;;;4915788;29;20045;-76
2023/04/13 03:57:27;;;;;;;26.75;14.57;;;4.80;99.90;;;;;;4904421;29;20059;-78
2023/04/13 03:59:56;;;;;;;26.02;13.18;;;4.90;99.90;;;;;;4893475;29;20056;-77
2023/04/13 04:02:41;;;;;;;23.60;12.90;;;4.80;99.90;;;;;;4894987;29;20119;-78
2023/04/13 04:05:13;;;;;;;27.83;15.02;;;4.80;99.90;;;;;;4893874;29;20139;-78
2023/04/13 04:07:42;;;;;;;23.88;14.15;;;4.90;99.90;;;;;;4907900;29;20076;-77
2023/04/13 04:10:11;;;;;;;21.95;12.93;;;4.90;99.90;;;;;;4892411;29;20052;-78
2023/04/13 04:12:38;;;;;;;27.88;14.70;;;4.90;99.90;;;;;;4908298;29;20044;-78
2023/04/13 04:15:09;;;;;;;31.02;15.43;;;4.90;99.90;;;;;;4892387;29;20052;-76
2023/04/13 04:17:38;;;;;;;29.85;15.82;;;4.90;99.90;;;;;;4892203;29;20055;-78
2023/04/13 04:20:09;;;;;;;28.83;15.45;;;4.80;99.90;;;;;;4891945;29;20041;-77
2023/04/13 04:22:36;;;;;;;29.00;16.73;;;4.80;99.90;;;;;;4893214;29;20054;-78
2023/04/13 04:25:08;;;;;;;29.38;15.93;;;4.80;99.90;;;;;;4892861;29;20079;-77
2023/04/13 04:27:38;;;;;;;30.55;16.67;;;4.80;99.90;;;;;;4893177;29;20047;-77
2023/04/13 04:30:09;;;;;;;32.17;16.45;;;4.90;99.90;;;;;;4892697;29;20505;-78
2023/04/13 04:32:39;;;;;;;31.85;17.45;;;5.00;99.90;;;;;;4893266;29;20105;-75
2023/04/13 04:35:13;;;;;;;34.28;16.55;;;5.10;99.90;;;;;;4904398;29;20108;-78
2023/04/13 04:37:50;;;;;;;33.42;19.52;;;5.30;99.90;;;;;;4915176;29;20044;-77
2023/04/13 04:40:21;;;;;;;35.50;18.60;;;5.30;99.90;;;;;;4915416;29;20057;-77
2023/04/13 04:42:50;;;;;;;37.15;18.90;;;5.50;99.90;;;;;;4916946;29;20063;-76
2023/04/13 04:45:37;;;;;;;34.10;18.42;;;5.60;99.90;;;;;;4912621;29;20069;-77
2023/04/13 04:48:06;;;;;;;42.33;19.92;;;5.70;99.90;;;;;;4899380;29;20052;-77
2023/04/13 04:50:36;;;;;;;43.85;20.58;;;5.70;99.90;;;;;;4895874;29;20497;-75
2023/04/13 04:53:16;;;;;;;47.22;22.55;;;5.70;99.90;;;;;;4913054;29;20040;-80
2023/04/13 04:55:47;;;;;;;47.33;24.35;;;5.80;99.90;;;;;;4896885;29;20120;-77
2023/04/13 04:58:26;;;;;;;54.40;25.30;;;5.90;99.90;;;;;;4896874;29;20049;-77
2023/04/13 05:00:56;;;;;;;48.58;23.88;;;5.90;99.90;;;;;;4897369;29;20747;-78
2023/04/13 05:03:24;;;;;;;39.10;18.98;;;5.80;99.90;;;;;;4898219;29;20048;-77
2023/04/13 05:06:00;;;;;;;34.25;19.15;;;5.90;99.90;;;;;;4913205;29;20049;-78
2023/04/13 05:08:30;;;;;;;40.10;19.95;;;6.00;99.90;;;;;;4897988;29;20049;-76
2023/04/13 05:11:00;;;;;;;38.22;19.67;;;6.00;99.90;;;;;;4907187;29;20039;-75
2023/04/13 05:13:28;;;;;;;41.45;21.48;;;6.00;99.90;;;;;;4899457;29;20493;-75
2023/04/13 05:16:13;;;;;;;40.77;20.57;;;6.10;99.90;;;;;;4896279;29;20140;-76
2023/04/13 05:18:45;;;;;;;51.28;25.92;;;6.30;99.90;;;;;;4896126;29;20036;-76
2023/04/13 05:21:22;;;;;;;59.92;28.92;;;6.50;99.90;;;;;;4895925;29;20080;-74
2023/04/13 05:23:56;;;;;;;63.80;30.23;;;6.70;99.90;;;;;;4895011;29;20509;-74
2023/04/13 05:26:26;;;;;;;67.55;31.70;;;6.90;99.90;;;;;;4895558;29;20049;-74
2023/04/13 05:28:54;;;;;;;62.78;31.60;;;7.10;99.90;;;;;;4911432;29;20067;-75
2023/04/13 05:31:23;;;;;;;50.22;25.70;;;7.30;99.90;;;;;;4897622;29;20049;-75
2023/04/13 05:33:50;;;;;;;38.55;19.45;;;7.60;99.90;;;;;;4897553;29;20052;-75
2023/04/13 05:36:18;;;;;;;39.63;17.50;;;7.90;99.90;;;;;;4896795;29;20772;-74
2023/04/13 05:38:46;;;;;;;36.55;16.75;;;8.20;99.90;;;;;;4898866;29;20049;-74
2023/04/13 05:41:20;;;;;;;35.92;18.75;;;8.50;99.90;;;;;;4898332;29;20068;-75
2023/04/13 05:43:49;;;;;;;34.67;19.42;;;8.90;99.90;;;;;;4896417;29;20511;-75
2023/04/13 05:46:16;;;;;;;33.05;16.48;;;9.30;99.90;;;;;;4895764;29;20048;-75
2023/04/13 05:48:45;;;;;;;28.02;15.90;;;9.80;99.90;;;;;;4897561;29;20040;-75
2023/04/13 05:51:14;;;;;;;30.90;18.42;;;10.40;99.90;;;;;;4896013;29;20073;-74
2023/04/13 05:53:42;;;;;;;34.97;18.23;;;10.80;97.60;;;;;;4896644;29;20489;-75
2023/04/13 05:56:10;;;;;;;32.95;15.98;;;11.20;94.80;;;;;;4895350;29;20401;-76
2023/04/13 05:58:39;;;;;;;20.70;12.90;;;11.40;91.60;;;;;;4896741;29;20344;-75
2023/04/13 06:01:23;;;;;;;29.33;13.98;;;11.40;90.00;;;;;;4897005;29;20126;-75
2023/04/13 06:03:50;;;;;;;23.83;12.77;;;11.40;88.00;;;;;;4896385;29;20494;-75
2023/04/13 06:06:19;;;;;;;28.15;13.82;;;11.40;87.20;;;;;;4897541;29;20077;-75
2023/04/13 06:08:47;;;;;;;27.35;16.23;;;11.40;88.00;;;;;;4911873;29;20040;-75
2023/04/13 06:11:17;;;;;;;29.40;16.58;;;11.60;89.10;;;;;;4929466;29;20045;-75
2023/04/13 06:13:44;;;;;;;35.78;18.15;;;11.90;88.00;;;;;;4915692;29;20064;-75
2023/04/13 06:16:12;;;;;;;31.08;16.98;;;12.30;84.30;;;;;;4916294;29;20045;-76
2023/04/13 06:18:41;;;;;;;37.13;19.05;;;12.70;81.50;;;;;;4916067;29;20112;-74
2023/04/13 06:21:08;;;;;;;41.45;19.38;;;13.00;77.60;;;;;;4913168;29;20068;-74
2023/04/13 06:23:36;;;;;;;29.33;17.17;;;13.20;75.00;;;;;;4913184;29;20080;-75
2023/04/13 06:26:11;;;;;;;34.03;18.13;;;13.40;73.70;;;;;;4901101;29;20049;-73
2023/04/13 06:28:50;;;;;;;40.95;24.08;;;13.70;71.80;;;;;;4915230;29;20561;-75
2023/04/13 06:31:19;;;;;;;35.08;19.50;;;14.10;69.40;;;;;;4899768;29;20067;-73
2023/04/13 06:33:53;;;;;;;32.17;19.95;;;14.30;67.70;;;;;;4897189;29;20048;-74
2023/04/13 06:36:28;;;;;;;35.42;19.10;;;14.30;66.50;;;;;;4913010;29;20048;-75
2023/04/13 06:38:57;;;;;;;36.28;20.58;;;14.60;65.60;;;;;;4902608;29;20127;-74
2023/04/13 06:41:26;;;;;;;30.48;19.38;;;14.80;64.10;;;;;;4902632;29;20049;-74
2023/04/13 06:44:10;;;;;;;33.25;17.80;;;15.00;62.30;;;;;;4896654;29;20108;-74
2023/04/13 06:46:50;;;;;;;31.75;17.73;;;15.10;61.80;;;;;;4896358;29;20037;-73
2023/04/13 06:49:26;;;;;;;29.92;16.23;;;15.40;60.80;;;;;;4901103;29;20056;-74
2023/04/13 06:51:54;;;;;;;29.95;16.52;;;15.80;59.10;;;;;;4899064;29;20081;-76
2023/04/13 06:54:22;;;;;;;26.60;16.17;;;15.90;58.00;;;;;;4905374;29;20080;-74
2023/04/13 06:56:56;;;;;;;29.88;17.30;;;16.20;57.20;;;;;;4895329;29;20053;-74
2023/04/13 06:59:24;;;;;;;30.17;15.77;;;16.10;56.30;;;;;;4897746;29;20056;-73
2023/04/13 07:01:51;;;;;;;28.38;15.48;;;16.10;56.30;;;;;;4902674;29;20162;-75
2023/04/13 07:04:18;;;;;;;25.02;13.65;;;16.20;56.60;;;;;;4895597;29;20081;-74
2023/04/13 07:06:48;;;;;;;20.58;13.45;;;16.50;56.30;;;;;;4895197;29;20052;-74
2023/04/13 07:09:16;;;;;;;20.33;12.98;;;16.80;55.60;;;;;;4902158;29;20044;-74
2023/04/13 07:11:44;;;;;;;24.45;12.57;;;16.90;55.00;;;;;;4904361;29;20080;-75
2023/04/13 07:14:12;;;;;;;25.77;13.35;;;17.10;54.90;;;;;;4926402;29;20061;-75
2023/04/13 07:16:39;;;;;;;23.73;13.20;;;17.20;54.20;;;;;;4924614;29;20067;-74
2023/04/13 07:19:07;;;;;;;23.30;13.43;;;17.30;54.00;;;;;;4904223;29;20044;-75
2023/04/13 07:21:35;;;;;;;29.45;12.75;;;17.60;53.60;;;;;;4894938;29;20120;-75
2023/04/13 07:24:07;;;;;;;26.95;15.18;;;17.80;52.70;;;;;;4909351;29;20197;-74
2023/04/13 07:26:39;;;;;;;23.02;14.32;;;18.00;52.00;;;;;;4892481;29;20408;-74
2023/04/13 07:29:12;;;;;;;31.08;18.05;;;17.90;51.90;;;;;;4908437;29;20068;-75
2023/04/13 07:31:43;;;;;;;33.10;17.50;;;18.10;51.80;;;;;;4909558;29;20044;-76
2023/04/13 07:34:12;;;;;;;34.97;17.15;;;18.40;51.50;;;;;;4909954;29;20036;-74
2023/04/13 07:36:45;;;;;;;29.20;17.65;;;18.90;50.70;;;;;;4893829;29;20051;-74
2023/04/13 07:39:20;;;;;;;27.92;18.98;;;19.20;49.20;;;;;;4893808;29;20049;-73
2023/04/13 07:41:50;;;;;;;27.42;18.13;;;19.30;48.50;;;;;;4894606;29;20108;-74
2023/04/13 07:44:43;;;;;;;29.00;19.40;;;19.20;48.00;;;;;;4894112;29;20052;-73
2023/04/13 07:47:12;;;;;;;34.53;21.83;;;19.30;47.80;;;;;;4891401;29;20052;-74
2023/04/13 07:49:41;;;;;;;31.75;19.15;;;19.50;47.60;;;;;;4894904;29;20191;-73
2023/04/13 07:52:13;;;;;;;29.15;18.60;;;19.40;47.20;;;;;;4895082;29;20523;-74
2023/04/13 07:54:43;;;;;;;34.95;21.83;;;19.50;47.00;;;;;;4896215;29;20049;-76
2023/04/13 07:57:12;;;;;;;28.50;17.20;;;19.70;46.70;;;;;;4897055;29;20073;-75
2023/04/13 07:59:46;;;;;;;26.80;15.20;;;19.80;46.00;;;;;;4895272;29;20100;-73
2023/04/13 08:02:15;;;;;;;23.38;14.27;;;19.90;45.50;;;;;;4895479;29;20131;-74
2023/04/13 08:04:47;;;;;;;18.58;10.93;;;20.10;45.00;;;;;;4893394;29;20101;-74
2023/04/13 08:07:19;;;;;;;18.52;10.63;;;20.50;43.50;;;;;;4893798;29;20576;-75
2023/04/13 08:09:51;;;;;;;18.35;10.93;;;20.90;41.60;;;;;;4894676;29;20041;-74
2023/04/13 08:12:18;;;;;;;15.65;10.07;;;21.20;40.80;;;;;;4892600;29;20504;-74
2023/04/13 08:14:48;;;;;;;16.10;11.30;;;21.50;40.20;;;;;;4897334;29;20063;-73
2023/04/13 08:17:15;;;;;;;19.23;12.00;;;21.80;39.30;;;;;;4893592;29;20040;-73
2023/04/13 08:19:44;;;;;;;15.27;11.50;;;22.10;38.50;;;;;;4892265;29;20044;-75
2023/04/13 08:22:14;;;;;;;15.43;10.38;;;22.20;38.20;;;;;;4894603;29;20148;-76
2023/04/13 08:24:42;;;;;;;14.68;9.52;;;22.40;37.50;;;;;;4896562;29;20045;-75
2023/04/13 08:27:11;;;;;;;13.43;10.43;;;22.60;36.60;;;;;;4892098;29;20108;-74
2023/04/13 08:29:40;;;;;;;13.93;9.25;;;22.60;36.20;;;;;;4892116;29;20076;-74
2023/04/13 08:32:07;;;;;;;11.88;8.57;;;22.30;35.30;;;;;;4893204;29;20045;-74
2023/04/13 08:34:35;;;;;;;14.52;9.10;;;22.30;35.30;;;;;;4899627;29;20560;-76
2023/04/13 08:37:04;;;;;;;14.48;10.00;;;22.30;35.40;;;;;;4895742;29;20087;-75
2023/04/13 08:39:34;;;;;;;11.55;7.88;;;22.50;35.20;;;;;;4895707;29;20044;-77
2023/04/13 08:42:03;;;;;;;12.95;8.48;;;22.30;34.20;;;;;;4893907;29;20135;-75
2023/04/13 08:44:41;;;;;;;11.55;8.20;;;22.50;33.90;;;;;;4909961;29;20049;-75
2023/04/13 08:47:10;;;;;;;11.82;7.20;;;22.40;33.20;;;;;;4893205;29;20052;-74
2023/04/13 08:49:39;;;;;;;19.17;7.70;;;22.30;32.90;;;;;;4894038;29;20044;-73
2023/04/13 08:52:17;;;;;;;13.05;7.35;;;22.40;33.20;;;;;;4895805;29;20037;-73
2023/04/13 08:54:48;;;;;;;14.32;8.57;;;22.20;33.60;;;;;;4895469;29;20053;-74
2023/04/13 08:57:21;;;;;;;10.18;7.00;;;22.00;33.70;;;;;;4895376;29;20519;-75
2023/04/13 08:59:51;;;;;;;7.40;5.47;;;22.10;33.50;;;;;;4895952;29;20490;-75
2023/04/13 09:02:27;;;;;;;8.80;6.00;;;22.20;32.40;;;;;;4893633;29;20144;-72
2023/04/13 09:05:04;;;;;;;11.48;6.38;;;22.30;32.10;;;;;;4908694;29;20049;-75
2023/04/13 09:07:35;;;;;;;7.55;5.60;;;22.10;32.20;;;;;;4894093;29;20044;-74
2023/04/13 09:10:13;;;;;;;8.15;4.97;;;22.00;32.20;;;;;;4895723;29;20049;-73
2023/04/13 09:12:42;;;;;;;18.92;11.27;;;21.90;32.50;;;;;;4893753;29;20048;-74
2023/04/13 09:15:13;;;;;;;6.00;4.18;;;21.50;32.90;;;;;;4892001;29;20068;-76
2023/04/13 09:17:49;;;;;;;9.63;6.25;;;21.40;33.00;;;;;;4892111;29;20160;-75
2023/04/13 09:20:20;;;;;;;7.82;5.35;;;21.60;33.00;;;;;;4892379;29;20618;-74
2023/04/13 09:22:48;;;;;;;10.07;6.43;;;21.60;33.30;;;;;;4894364;29;20040;-77
2023/04/13 09:25:23;;;;;;;8.82;5.80;;;21.60;32.90;;;;;;4894791;29;20112;-75
2023/04/13 09:27:52;;;;;;;7.38;5.00;;;21.70;33.30;;;;;;4893794;29;20044;-75
2023/04/13 09:30:22;;;;;;;7.25;4.00;;;21.60;33.10;;;;;;4907366;29;20049;-74
2023/04/13 09:33:03;;;;;;;6.63;4.20;;;21.50;33.50;;;;;;4910952;29;20060;-74
2023/04/13 09:35:32;;;;;;;12.50;4.38;;;21.40;33.40;;;;;;4896278;29;20135;-74
2023/04/13 09:37:59;;;;;;;9.80;3.80;;;21.30;33.30;;;;;;4897884;29;20493;-73
2023/04/13 09:40:27;;;;;;;7.20;4.28;;;21.30;34.00;;;;;;4899954;29;20592;-74
2023/04/13 09:42:56;;;;;;;5.32;3.33;;;21.30;33.70;;;;;;4898421;29;20076;-73
2023/04/13 09:45:33;;;;;;;9.35;5.15;;;21.30;33.30;;;;;;4896557;29;20052;-74
2023/04/13 09:48:01;;;;;;;6.70;3.72;;;21.40;33.80;;;;;;4896538;29;20052;-75
2023/04/13 09:50:31;;;;;;;7.63;4.35;;;21.40;34.00;;;;;;4897951;29;20041;-75
2023/04/13 09:53:02;;;;;;;6.65;4.90;;;21.50;33.90;;;;;;4898593;29;20045;-74
2023/04/13 09:55:30;;;;;;;7.68;5.30;;;21.70;33.50;;;;;;4901233;29;20143;-75
2023/04/13 09:58:08;;;;;;;9.90;5.68;;;21.80;33.50;;;;;;4898732;29;20044;-74
2023/04/13 10:00:40;;;;;;;11.10;8.02;;;22.10;33.70;;;;;;4897280;29;20064;-73
2023/04/13 10:03:11;;;;;;;34.35;29.88;;;22.30;33.10;;;;;;4896928;29;20139;-74
2023/04/13 10:05:39;;;;;;;9.18;4.68;;;22.40;32.50;;;;;;4896567;29;20071;-74
2023/04/13 10:08:07;;;;;;;7.43;5.05;;;22.40;32.10;;;;;;4897212;29;20045;-76
2023/04/13 10:10:35;;;;;;;7.75;4.82;;;22.40;32.20;;;;;;4896588;29;20055;-75
2023/04/13 10:13:08;;;;;;;5.38;4.28;;;22.60;32.00;;;;;;4900968;29;20040;-75
2023/04/13 10:15:56;;;;;;;5.53;3.65;;;22.70;32.10;;;;;;4899761;29;20049;-75
2023/04/13 10:18:35;;;;;;;10.57;5.38;;;22.90;32.40;;;;;;4897138;29;20059;-75
2023/04/13 10:21:04;;;;;;;7.88;5.18;;;23.10;32.30;;;;;;4896765;29;20100;-75
2023/04/13 10:23:32;;;;;;;9.05;6.97;;;23.30;31.70;;;;;;4900782;29;20045;-76
2023/04/13 10:26:02;;;;;;;8.68;6.05;;;23.40;31.80;;;;;;4902505;29;20370;-76
2023/04/13 10:28:41;;;;;;;11.98;6.53;;;23.60;31.70;;;;;;4900463;29;20106;-73
2023/04/13 10:31:10;;;;;;;8.07;5.38;;;23.80;31.50;;;;;;4897482;29;20052;-74
2023/04/13 10:33:48;;;;;;;8.88;5.72;;;24.00;30.40;;;;;;4897430;29;20040;-73
2023/04/13 10:36:15;;;;;;;9.23;5.72;;;23.90;30.20;;;;;;4896308;29;20417;-76
2023/04/13 10:38:43;;;;;;;11.75;6.57;;;23.80;30.50;;;;;;4896189;29;20493;-73
2023/04/13 10:41:10;;;;;;;13.57;8.57;;;23.90;31.00;;;;;;4900849;29;20045;-76
2023/04/13 10:43:38;;;;;;;11.00;6.47;;;24.30;30.70;;;;;;4896946;29;20076;-75
2023/04/13 10:46:12;;;;;;;7.38;5.85;;;24.60;30.00;;;;;;4896444;29;20135;-74
2023/04/13 10:48:41;;;;;;;8.63;5.72;;;24.70;29.30;;;;;;4896833;29;20053;-74
2023/04/13 10:51:08;;;;;;;10.38;5.63;;;24.80;29.30;;;;;;4896642;29;20104;-75
2023/04/13 10:53:36;;;;;;;9.27;6.43;;;25.00;29.00;;;;;;4896476;29;20060;-75
2023/04/13 10:56:05;;;;;;;9.75;6.68;;;25.00;29.30;;;;;;4896054;29;20556;-74
2023/04/13 10:58:33;;;;;;;10.35;5.75;;;25.00;28.80;;;;;;4896545;29;20041;-74
2023/04/13 11:01:02;;;;;;;13.32;8.07;;;25.00;28.60;;;;;;4896085;29;20117;-74
2023/04/13 11:03:30;;;;;;;9.07;5.80;;;24.90;28.80;;;;;;4895966;29;20224;-74
2023/04/13 11:06:00;;;;;;;9.75;7.85;;;25.00;28.50;;;;;;4895890;29;20049;-74
2023/04/13 11:08:29;;;;;;;6.55;4.65;;;25.00;28.70;;;;;;4896124;29;20053;-74
2023/04/13 11:10:57;;;;;;;6.95;4.80;;;24.90;28.30;;;;;;4896884;29;20052;-76
2023/04/13 11:13:25;;;;;;;7.75;4.75;;;25.00;27.90;;;;;;4895758;29;20060;-75
2023/04/13 11:16:01;;;;;;;6.70;5.00;;;24.70;28.10;;;;;;4894490;29;20044;-73
2023/04/13 11:18:30;;;;;;;7.00;5.25;;;24.50;28.60;;;;;;4894655;29;20106;-74
2023/04/13 11:20:58;;;;;;;7.47;5.32;;;24.50;29.10;;;;;;4895198;29;20052;-74
2023/04/13 11:23:25;;;;;;;7.95;4.60;;;24.70;28.80;;;;;;4895081;29;20142;-74
2023/04/13 11:25:56;;;;;;;7.30;5.45;;;24.70;28.40;;;;;;4894871;29;20051;-75
2023/04/13 11:28:25;;;;;;;9.70;7.22;;;24.70;28.30;;;;;;4895606;29;20422;-75
2023/04/13 11:30:54;;;;;;;11.95;7.82;;;24.70;28.40;;;;;;4896968;29;20126;-75
2023/04/13 11:33:26;;;;;;;10.77;7.03;;;24.90;28.40;;;;;;4896181;29;20048;-75
2023/04/13 11:35:56;;;;;;;9.20;5.97;;;25.00;28.20;;;;;;4895611;29;20059;-75
2023/04/13 11:38:24;;;;;;;6.43;4.97;;;24.90;27.90;;;;;;4895930;29;20056;-74
2023/04/13 11:40:53;;;;;;;11.95;6.82;;;24.80;27.90;;;;;;4895139;29;20131;-75
2023/04/13 11:43:21;;;;;;;7.03;5.60;;;24.80;28.30;;;;;;4892888;29;20052;-74
2023/04/13 11:45:48;;;;;;;9.05;6.50;;;24.90;28.30;;;;;;4894259;29;20056;-75
2023/04/13 11:48:16;;;;;;;7.47;5.95;;;25.00;27.90;;;;;;4897040;29;20082;-76
2023/04/13 11:50:44;;;;;;;8.43;6.13;;;25.00;27.90;;;;;;4896129;29;20128;-76
2023/04/13 11:53:14;;;;;;;8.13;5.80;;;25.10;27.80;;;;;;4895902;29;20136;-75
2023/04/13 11:55:41;;;;;;;11.00;6.10;;;25.20;27.80;;;;;;4893858;29;20037;-74
2023/04/13 11:58:10;;;;;;;7.43;5.07;;;25.20;27.40;;;;;;4894338;29;20314;-75
2023/04/13 12:00:40;;;;;;;8.90;6.00;;;25.10;27.40;;;;;;4893604;29;20055;-75
2023/04/13 12:03:13;;;;;;;9.18;5.80;;;25.10;27.20;;;;;;4894709;29;20069;-76
2023/04/13 12:05:42;;;;;;;10.20;5.28;;;25.00;27.30;;;;;;4894897;29;20045;-73
2023/04/13 12:08:09;;;;;;;9.30;5.35;;;24.70;27.60;;;;;;4894366;29;20060;-75
2023/04/13 12:10:40;;;;;;;6.20;4.82;;;24.20;27.80;;;;;;4895302;29;20045;-75
2023/04/13 12:13:09;;;;;;;9.85;5.40;;;23.80;28.60;;;;;;4895369;29;20131;-73
2023/04/13 12:15:38;;;;;;;7.45;5.32;;;23.60;29.20;;;;;;4895528;29;20135;-76
2023/04/13 12:18:06;;;;;;;6.70;5.28;;;23.80;29.30;;;;;;4893728;29;20596;-74
2023/04/13 12:20:38;;;;;;;10.07;5.60;;;24.00;29.30;;;;;;4894271;29;20045;-74
2023/04/13 12:23:17;;;;;;;8.02;5.15;;;24.10;29.30;;;;;;4893977;29;20120;-74
2023/04/13 12:25:56;;;;;;;10.60;5.72;;;24.60;29.00;;;;;;4893690;29;20044;-76
2023/04/13 12:28:29;;;;;;;13.45;6.38;;;24.80;28.50;;;;;;4895884;29;20063;-75
2023/04/13 12:31:03;;;;;;;9.88;6.88;;;25.00;28.20;;;;;;4893921;29;20113;-78
2023/04/13 12:33:31;;;;;;;10.43;6.55;;;25.00;28.30;;;;;;4870829;29;20055;-77
2023/04/13 12:35:58;;;;;;;7.90;5.85;;;25.00;28.50;;;;;;4894599;29;20112;-75
2023/04/13 12:38:26;;;;;;;7.85;5.68;;;24.90;28.20;;;;;;4879216;29;20112;-73
2023/04/13 12:40:58;;;;;;;7.90;4.80;;;24.90;28.40;;;;;;4897533;29;20040;-76
2023/04/13 12:43:26;;;;;;;9.02;6.25;;;24.90;28.20;;;;;;4884767;29;20067;-75
2023/04/13 12:45:53;;;;;;;22.55;13.65;;;24.70;28.40;;;;;;4901676;29;20133;-76
2023/04/13 12:48:21;;;;;;;7.90;5.15;;;24.60;28.50;;;;;;4903969;29;20147;-76
2023/04/13 12:50:50;;;;;;;8.38;5.78;;;24.70;28.40;;;;;;4901771;29;20066;-73
2023/04/13 12:53:20;;;;;;;8.95;6.47;;;24.50;28.10;;;;;;4906481;29;20151;-75
2023/04/13 12:55:49;;;;;;;10.40;6.55;;;24.60;28.40;;;;;;4901160;29;20044;-75